Time;durP1;ratioP1;P1;durP2;ratioP2;P2;SDS_P1;SDS_P2;PMS_P1;PMS_P2;Temp;Humidity;BMP_temperature;BMP_pressure;BME280_temperature;BME280_humidity;BME280_pressure;Samples;Min_cycle;Max_cycle;Signal;HPM_P1;HPM_P2
2023/12/19 00:01:12;;;;;;;25.85;15.73;;;6.00;99.90;;;6.02;82.40;101541.75;5075448;28;20045;-83
2023/12/19 00:03:39;;;;;;;26.98;15.73;;;6.00;99.90;;;5.97;81.55;101528.97;5075198;28;20131;-83
2023/12/19 00:06:07;;;;;;;25.48;15.85;;;6.00;99.90;;;5.82;81.74;101544.56;5074164;28;20049;-83
2023/12/19 00:08:34;;;;;;;24.98;15.93;;;5.90;99.90;;;5.77;82.20;101559.25;5073848;28;20047;-83
2023/12/19 00:11:02;;;;;;;29.50;16.73;;;5.80;99.90;;;5.75;82.27;101554.06;5078203;28;20097;-82
2023/12/19 00:13:30;;;;;;;25.55;17.08;;;5.80;99.90;;;5.68;82.05;101538.00;5089745;28;20102;-83
2023/12/19 00:15:58;;;;;;;26.58;16.67;;;5.70;99.90;;;5.62;82.39;101549.19;5057593;28;20048;-83
2023/12/19 00:18:27;;;;;;;24.67;15.80;;;5.70;99.90;;;5.72;82.79;101548.28;5075340;28;20040;-83
2023/12/19 00:20:55;;;;;;;32.33;17.42;;;5.70;99.90;;;5.77;82.67;101535.41;5074650;28;20040;-83
2023/12/19 00:23:22;;;;;;;25.52;16.48;;;5.80;99.90;;;5.75;82.04;101530.25;5074595;28;20121;-83
2023/12/19 00:25:51;;;;;;;26.42;16.20;;;5.80;99.90;;;5.83;82.30;101516.25;5075485;28;20044;-83
2023/12/19 00:28:18;;;;;;;25.08;15.55;;;5.80;99.90;;;5.75;82.48;101532.06;5056972;28;20075;-83
2023/12/19 00:30:46;;;;;;;25.42;15.95;;;5.70;99.90;;;5.81;82.37;101536.78;5075103;28;20114;-83
2023/12/19 00:33:13;;;;;;;25.02;15.95;;;5.80;99.90;;;5.86;82.23;101527.38;5074999;28;20044;-83
2023/12/19 00:35:43;;;;;;;24.20;15.98;;;5.80;99.90;;;5.87;82.07;101544.09;5073779;28;20040;-83
2023/12/19 00:38:10;;;;;;;28.20;17.77;;;5.80;99.90;;;5.78;81.45;101534.44;5073765;28;20094;-83
2023/12/19 00:40:38;;;;;;;25.63;16.17;;;6.00;99.90;;;5.65;82.63;101525.06;5074021;28;20133;-83
2023/12/19 00:43:06;;;;;;;23.48;16.25;;;5.70;99.90;;;5.68;82.32;101527.41;5040926;28;20052;-83
2023/12/19 00:45:35;;;;;;;24.25;15.45;;;5.70;99.90;;;5.64;82.86;101539.28;5056573;28;20418;-83
2023/12/19 00:48:04;;;;;;;24.75;16.02;;;5.60;99.90;;;5.75;82.75;101534.72;5074921;28;20064;-83
2023/12/19 00:50:31;;;;;;;24.00;16.02;;;5.70;99.90;;;5.80;82.60;101535.91;5056873;28;20048;-83
2023/12/19 00:53:00;;;;;;;23.75;15.18;;;5.70;99.90;;;5.81;82.36;101536.78;5056222;28;20074;-83
2023/12/19 00:55:27;;;;;;;24.52;15.82;;;5.80;99.90;;;5.78;82.46;101540.53;5073552;28;20048;-83
2023/12/19 00:57:54;;;;;;;24.88;15.60;;;5.80;99.90;;;5.84;82.28;101541.75;5039966;28;20063;-83
2023/12/19 01:00:23;;;;;;;23.45;15.70;;;5.80;99.90;;;5.77;82.54;101533.59;5073897;28;20071;-83
2023/12/19 01:02:50;;;;;;;26.80;15.77;;;5.80;99.90;;;5.83;82.31;101548.03;5056846;28;20392;-83
2023/12/19 01:05:18;;;;;;;24.40;15.40;;;5.80;99.90;;;5.85;82.46;101541.59;5073141;28;20044;-83
2023/12/19 01:07:46;;;;;;;20.77;14.18;;;5.80;99.90;;;5.96;82.33;101531.78;5073600;28;20556;-83
2023/12/19 01:10:15;;;;;;;23.83;15.73;;;5.90;99.90;;;5.97;81.72;101522.84;5073145;28;20101;-83
2023/12/19 01:12:43;;;;;;;22.95;15.48;;;5.90;99.90;;;6.00;81.71;101528.66;5074008;28;20116;-83
2023/12/19 01:15:11;;;;;;;21.63;14.95;;;5.90;99.90;;;6.01;81.87;101525.03;5055027;28;20044;-83
2023/12/19 01:17:39;;;;;;;24.15;15.25;;;5.90;99.90;;;6.03;81.79;101528.34;5073096;28;20508;-83
2023/12/19 01:20:09;;;;;;;22.80;15.02;;;5.90;99.90;;;6.06;81.86;101514.81;5072889;28;20045;-83
2023/12/19 01:22:36;;;;;;;21.77;14.23;;;5.90;99.90;;;6.06;81.76;101504.22;5074183;28;20040;-83
2023/12/19 01:25:04;;;;;;;22.65;15.15;;;5.90;99.90;;;6.10;81.49;101491.47;5074423;28;20049;-83
2023/12/19 01:27:33;;;;;;;23.38;15.13;;;6.00;99.90;;;6.08;80.94;101498.75;5074179;28;20094;-83
2023/12/19 01:30:01;;;;;;;20.40;14.43;;;6.00;99.90;;;5.85;81.08;101487.81;5074154;28;20067;-83
2023/12/19 01:32:29;;;;;;;22.75;15.30;;;5.90;99.90;;;5.80;82.00;101493.56;5072555;28;20036;-83
2023/12/19 01:34:55;;;;;;;23.52;15.30;;;5.80;99.90;;;5.85;81.97;101488.63;5075178;28;20115;-83
2023/12/19 01:37:23;;;;;;;20.02;13.80;;;5.80;99.90;;;5.90;82.14;101494.31;5076303;28;20052;-84
2023/12/19 01:39:50;;;;;;;20.00;13.80;;;5.90;99.90;;;5.88;81.68;101485.69;5076526;28;20052;-83
2023/12/19 01:42:17;;;;;;;21.73;14.20;;;5.80;99.90;;;5.83;81.71;101479.22;5077927;28;20102;-83
2023/12/19 01:45:10;;;;;;;23.08;14.45;;;5.80;99.90;;;5.67;82.04;101472.81;5059765;28;20125;-83
2023/12/19 01:47:41;;;;;;;19.17;12.98;;;5.80;99.90;;;5.49;83.15;101477.31;5060199;28;20446;-83
2023/12/19 01:50:09;;;;;;;19.60;13.38;;;5.60;99.90;;;5.49;83.76;101477.31;5077770;28;20048;-83
2023/12/19 01:52:38;;;;;;;21.23;12.90;;;5.60;99.90;;;5.65;83.71;101473.94;5076935;28;20450;-83
2023/12/19 01:55:07;;;;;;;21.02;13.27;;;5.60;99.90;;;5.73;83.54;101474.00;5075969;28;20119;-83
2023/12/19 01:57:35;;;;;;;19.67;12.50;;;5.70;99.90;;;5.80;83.20;101468.91;5075677;28;20094;-83
2023/12/19 02:00:07;;;;;;;21.77;14.10;;;5.70;99.90;;;5.81;82.72;101465.31;5076161;28;20048;-83
2023/12/19 02:02:34;;;;;;;;;;;5.70;99.90;;;5.81;82.94;101470.59;5044184;28;20049;-83
2023/12/19 02:05:02;;;;;;;19.52;13.38;;;5.70;99.90;;;5.81;82.72;101468.78;5077595;28;19956;-83
2023/12/19 02:07:30;;;;;;;22.05;13.27;;;5.80;99.90;;;5.88;82.58;101458.41;5058966;28;20047;-83
2023/12/19 02:09:57;;;;;;;22.23;14.40;;;5.80;99.90;;;5.79;82.65;101457.50;5077226;28;20041;-83
2023/12/19 02:12:25;;;;;;;26.80;16.05;;;5.80;99.90;;;5.60;83.34;101447.94;5042193;28;20415;-83
2023/12/19 02:14:53;;;;;;;21.35;14.13;;;5.70;99.90;;;5.72;83.50;101458.28;5025273;28;20131;-84
2023/12/19 02:17:22;;;;;;;23.58;14.63;;;5.70;99.90;;;5.81;83.39;101452.91;5076805;28;20041;-83
2023/12/19 02:19:51;;;;;;;22.25;14.68;;;5.80;99.90;;;5.75;82.94;101461.44;5075265;28;20495;-83
2023/12/19 02:22:19;;;;;;;23.67;15.13;;;5.70;99.90;;;5.77;83.36;101438.31;5075369;28;20064;-83
2023/12/19 02:24:48;;;;;;;23.33;15.20;;;5.80;99.90;;;5.87;83.40;101443.50;5074846;28;20055;-83
2023/12/19 02:27:19;;;;;;;23.85;15.43;;;5.80;99.90;;;5.89;83.27;101438.88;5075480;28;20067;-83
2023/12/19 02:29:46;;;;;;;25.40;15.60;;;5.80;99.90;;;5.73;83.38;101431.66;5075104;28;20132;-83
2023/12/19 02:32:13;;;;;;;21.52;14.65;;;5.80;99.90;;;5.75;83.66;101420.91;5058108;28;20052;-83
2023/12/19 02:34:41;;;;;;;27.30;16.02;;;5.80;99.90;;;5.71;83.45;101420.41;5076218;28;20550;-83
2023/12/19 02:37:08;;;;;;;21.02;14.38;;;5.80;99.90;;;5.76;83.74;101417.28;5074846;28;20098;-83
2023/12/19 02:39:35;;;;;;;24.17;15.75;;;5.70;99.90;;;5.80;83.55;101405.38;5075858;28;20123;-83
2023/12/19 02:42:05;;;;;;;27.48;15.90;;;5.80;99.90;;;5.69;83.77;101409.97;5075095;28;20457;-83
2023/12/19 02:44:33;;;;;;;24.17;15.25;;;5.70;99.90;;;5.65;83.88;101402.50;5054242;28;20578;-83
2023/12/19 02:47:01;;;;;;;27.85;14.93;;;5.80;99.90;;;5.68;84.19;101403.00;5074205;28;20490;-83
2023/12/19 02:49:29;;;;;;;21.73;14.48;;;5.70;99.90;;;5.78;84.05;101399.44;5074857;28;20049;-83
2023/12/19 02:51:58;;;;;;;21.70;14.63;;;5.80;99.90;;;5.81;83.84;101396.50;5058390;28;20136;-83
2023/12/19 02:54:25;;;;;;;21.42;14.65;;;5.80;99.90;;;5.83;83.72;101397.16;5075941;28;20507;-83
2023/12/19 02:56:53;;;;;;;21.45;14.02;;;5.80;99.90;;;5.88;83.85;101389.56;5075924;28;20064;-85
2023/12/19 02:59:22;;;;;;;22.63;14.40;;;5.80;99.90;;;5.88;83.72;101381.63;5057797;28;20047;-83
2023/12/19 03:01:49;;;;;;;26.73;16.92;;;5.90;99.90;;;5.89;83.56;101386.75;5073926;28;20507;-84
2023/12/19 03:04:17;;;;;;;26.63;17.17;;;5.90;99.90;;;5.90;83.53;101382.28;5057724;28;20036;-83
2023/12/19 03:06:44;;;;;;;23.83;16.55;;;5.80;99.90;;;5.88;83.85;101376.31;5058099;28;20122;-83
2023/12/19 03:09:11;;;;;;;31.77;18.85;;;5.90;99.90;;;5.85;83.61;101371.34;5074516;28;20131;-83
2023/12/19 03:11:41;;;;;;;32.53;20.02;;;5.90;99.90;;;5.79;83.85;101369.31;5075964;28;20044;-83
2023/12/19 03:14:08;;;;;;;35.17;20.60;;;5.80;99.90;;;5.72;84.20;101363.03;5073603;28;20510;-83
2023/12/19 03:16:37;;;;;;;35.72;21.23;;;5.80;99.90;;;5.68;84.32;101349.25;5073460;28;20040;-84
2023/12/19 03:19:04;;;;;;;32.25;20.40;;;5.70;99.90;;;5.68;84.65;101351.91;5074123;28;20040;-83
2023/12/19 03:21:32;;;;;;;33.88;21.45;;;5.80;99.90;;;5.71;84.79;101359.53;5057784;28;20044;-83
2023/12/19 03:23:59;;;;;;;35.28;21.88;;;5.70;99.90;;;5.78;84.59;101355.25;5075118;28;20075;-83
2023/12/19 03:26:26;;;;;;;33.55;20.85;;;5.80;99.90;;;5.62;84.84;101348.09;5074538;28;20042;-83
2023/12/19 03:28:54;;;;;;;30.38;20.58;;;5.80;99.90;;;5.71;85.00;101335.72;5074931;28;20044;-83
2023/12/19 03:31:21;;;;;;;33.97;21.15;;;5.80;99.90;;;5.65;85.33;101329.22;5041070;28;20048;-83
2023/12/19 03:33:52;;;;;;;29.77;19.50;;;5.70;99.90;;;5.66;85.89;101328.25;5073540;28;20526;-83
2023/12/19 03:36:19;;;;;;;34.92;21.60;;;5.70;99.90;;;5.60;85.70;101342.09;5055275;28;20122;-83
2023/12/19 03:38:47;;;;;;;31.80;20.83;;;5.70;99.90;;;5.68;86.09;101331.56;5072938;28;20068;-83
2023/12/19 03:41:14;;;;;;;38.17;21.85;;;5.70;99.90;;;5.69;85.74;101335.88;5074874;28;20033;-83
2023/12/19 03:43:42;;;;;;;33.10;20.65;;;5.80;99.90;;;5.78;85.71;101336.75;5073419;28;20036;-83
2023/12/19 03:46:10;;;;;;;35.03;20.67;;;5.80;99.90;;;5.88;85.58;101347.22;5073190;28;20072;-83
2023/12/19 03:48:37;;;;;;;34.00;20.55;;;5.90;99.90;;;5.84;85.89;101349.34;5040285;28;20037;-83
2023/12/19 03:51:05;;;;;;;37.53;20.23;;;5.90;99.90;;;5.96;85.61;101347.28;5055143;28;20052;-84
2023/12/19 03:53:33;;;;;;;32.92;20.70;;;6.00;99.90;;;5.92;85.58;101343.28;5075142;28;20044;-83
2023/12/19 03:56:00;;;;;;;34.45;21.02;;;6.10;99.90;;;5.98;85.16;101337.34;5073385;28;20072;-83
2023/12/19 03:58:28;;;;;;;33.85;20.05;;;6.00;99.90;;;6.02;85.08;101325.47;5073927;28;20044;-83
2023/12/19 04:00:55;;;;;;;36.47;19.88;;;6.00;99.90;;;5.98;85.06;101333.88;5074824;28;20076;-83
2023/12/19 04:03:22;;;;;;;32.88;19.05;;;6.00;99.90;;;5.89;85.12;101309.16;5033573;28;20041;-83
2023/12/19 04:05:50;;;;;;;29.75;17.70;;;6.00;99.90;;;5.86;85.45;101312.13;5073440;28;20044;-83
2023/12/19 04:08:19;;;;;;;29.98;18.73;;;5.90;99.90;;;5.76;86.07;101314.91;5056978;28;20044;-83
2023/12/19 04:10:47;;;;;;;33.15;19.10;;;5.90;99.90;;;5.78;86.27;101306.81;5073156;28;20414;-83
2023/12/19 04:13:14;;;;;;;29.55;17.75;;;5.90;99.90;;;5.84;86.43;101298.22;5074608;28;20067;-83
2023/12/19 04:15:42;;;;;;;27.23;17.02;;;5.90;99.90;;;5.82;86.42;101294.91;5073649;28;20064;-83
2023/12/19 04:18:14;;;;;;;28.20;16.48;;;5.90;99.90;;;5.85;86.66;101291.94;5075091;28;20041;-83
2023/12/19 04:20:41;;;;;;;23.60;15.40;;;5.90;99.90;;;5.89;86.75;101277.38;5075354;28;20116;-83
2023/12/19 04:23:09;;;;;;;29.70;16.90;;;5.90;99.90;;;5.79;87.00;101266.09;5073680;28;20112;-83
2023/12/19 04:25:38;;;;;;;24.95;15.27;;;6.00;99.90;;;5.85;87.07;101270.75;5056244;28;20109;-83
2023/12/19 04:28:05;;;;;;;25.10;14.50;;;5.90;99.90;;;5.89;87.05;101259.69;5072795;28;20040;-83
2023/12/19 04:30:33;;;;;;;22.67;14.57;;;6.00;99.90;;;5.97;86.74;101255.44;5072865;28;20427;-83
2023/12/19 04:33:00;;;;;;;25.20;15.18;;;6.00;99.90;;;5.98;86.68;101238.56;5075044;28;20066;-83
2023/12/19 04:35:27;;;;;;;25.10;14.63;;;6.00;99.90;;;5.90;86.68;101234.03;5072896;28;20036;-83
2023/12/19 04:37:55;;;;;;;24.23;14.45;;;6.00;99.90;;;6.01;86.76;101233.78;5074500;28;20056;-83
2023/12/19 04:40:22;;;;;;;25.08;14.43;;;6.00;99.90;;;6.03;86.61;101221.19;5073976;28;20431;-83
2023/12/19 04:42:51;;;;;;;22.80;13.95;;;6.30;99.90;;;5.91;86.96;101218.03;5072932;28;20121;-83
2023/12/19 04:45:18;;;;;;;20.25;13.23;;;6.00;99.90;;;5.97;86.94;101216.56;5072967;28;20419;-83
2023/12/19 04:47:46;;;;;;;22.15;12.77;;;6.10;99.90;;;5.97;86.76;101216.56;5074380;28;20067;-83
2023/12/19 04:50:13;;;;;;;21.20;12.90;;;6.00;99.90;;;5.98;86.94;101227.97;5075876;28;20036;-83
2023/12/19 04:52:41;;;;;;;19.83;12.80;;;6.10;99.90;;;5.84;87.43;101224.09;5055861;28;20135;-83
2023/12/19 04:55:11;;;;;;;23.23;12.45;;;6.00;99.90;;;5.90;87.80;101226.94;5055695;28;20131;-83
2023/12/19 04:57:39;;;;;;;20.23;12.50;;;6.00;99.90;;;5.91;87.53;101238.38;5075425;28;20048;-83
2023/12/19 05:00:10;;;;;;;21.75;12.73;;;6.40;99.90;;;5.90;87.69;101234.03;5072420;28;20128;-83
2023/12/19 05:02:37;;;;;;;23.42;13.25;;;6.00;99.90;;;6.00;87.75;101231.28;5074193;28;20048;-83
2023/12/19 05:05:05;;;;;;;20.80;12.85;;;6.10;99.90;;;5.98;87.91;101231.44;5072814;28;20090;-83
2023/12/19 05:07:33;;;;;;;21.27;13.15;;;6.00;99.90;;;6.02;87.94;101208.13;5074177;28;20040;-83
2023/12/19 05:10:02;;;;;;;20.13;12.77;;;6.10;99.90;;;5.92;87.51;101205.63;5074221;28;20045;-84
2023/12/19 05:12:29;;;;;;;21.23;12.82;;;6.10;99.90;;;5.85;88.07;101209.88;5077922;28;20048;-83
2023/12/19 05:14:57;;;;;;;17.65;11.25;;;6.10;99.90;;;5.92;88.19;101197.69;5077273;28;20045;-84
2023/12/19 05:17:26;;;;;;;17.48;11.45;;;6.00;99.90;;;5.94;88.04;101201.00;5060244;28;20048;-84
2023/12/19 05:19:53;;;;;;;16.90;11.50;;;6.10;99.90;;;6.00;88.11;101189.75;5076389;28;20127;-84
2023/12/19 05:22:21;;;;;;;18.02;11.20;;;6.00;99.90;;;6.00;88.22;101195.03;5039693;28;20102;-83
2023/12/19 05:24:50;;;;;;;18.95;11.40;;;6.10;99.90;;;6.00;88.16;101179.16;5056672;28;20120;-83
2023/12/19 05:27:17;;;;;;;17.13;11.57;;;6.10;99.90;;;6.04;88.01;101172.53;5056656;28;20099;-85
2023/12/19 05:29:45;;;;;;;16.65;10.90;;;6.10;99.90;;;6.02;87.95;101166.59;5058647;28;20041;-84
2023/12/19 05:32:12;;;;;;;16.45;10.70;;;6.10;99.90;;;5.93;88.15;101159.63;5059182;28;20044;-83
2023/12/19 05:34:41;;;;;;;15.73;10.45;;;6.10;99.90;;;6.01;88.59;101157.00;5078943;28;20044;-82
2023/12/19 05:37:09;;;;;;;16.85;10.93;;;6.10;99.90;;;6.04;88.32;101164.59;5078343;28;20060;-83
2023/12/19 05:39:36;;;;;;;16.67;11.15;;;6.10;99.90;;;6.00;88.23;101152.66;5047915;28;20503;-83
2023/12/19 05:42:07;;;;;;;15.35;10.75;;;6.10;99.90;;;6.04;88.31;101159.31;5079692;28;20403;-83
2023/12/19 05:44:34;;;;;;;15.43;10.48;;;6.10;99.90;;;6.06;88.36;101156.50;5061577;28;20052;-84
2023/12/19 05:47:04;;;;;;;16.77;10.82;;;6.10;99.90;;;6.07;88.32;101155.50;5065276;28;20098;-82
2023/12/19 05:49:32;;;;;;;16.33;11.35;;;6.10;99.90;;;6.08;88.30;101160.63;5082603;28;20071;-82
2023/12/19 05:52:02;;;;;;;18.38;12.10;;;6.20;99.90;;;6.07;88.00;101164.28;5082696;28;20107;-82
2023/12/19 05:54:30;;;;;;;20.88;13.13;;;6.10;99.90;;;6.06;88.18;101157.34;5082812;28;20068;-83
2023/12/19 05:56:57;;;;;;;17.67;12.00;;;6.10;99.90;;;6.01;88.40;101167.59;5081571;28;20028;-82
2023/12/19 05:59:24;;;;;;;23.80;13.88;;;6.10;99.90;;;6.08;88.44;101154.50;5080490;28;20057;-82
2023/12/19 06:01:52;;;;;;;21.67;13.60;;;6.20;99.90;;;6.05;88.50;101145.09;5079999;28;20048;-83
2023/12/19 06:04:19;;;;;;;19.98;12.95;;;6.20;99.90;;;6.07;88.65;101155.50;5080780;28;20506;-82
2023/12/19 06:06:47;;;;;;;23.88;14.55;;;6.20;99.90;;;6.06;88.30;101146.75;5076364;28;20041;-83
2023/12/19 06:09:19;;;;;;;20.08;13.15;;;6.10;99.90;;;5.98;88.97;101144.06;5076468;28;20044;-83
2023/12/19 06:11:46;;;;;;;21.65;14.45;;;6.10;99.90;;;6.04;88.87;101145.22;5077539;28;20044;-83
2023/12/19 06:14:13;;;;;;;20.23;13.20;;;6.10;99.90;;;6.08;88.95;101144.75;5077673;28;20037;-83
2023/12/19 06:16:41;;;;;;;22.08;13.48;;;6.20;99.90;;;6.15;88.72;101142.28;5078023;28;20045;-84
2023/12/19 06:19:08;;;;;;;24.67;15.52;;;6.20;99.90;;;6.05;88.53;101160.13;5079057;28;20040;-83
2023/12/19 06:21:36;;;;;;;25.25;15.77;;;6.20;99.90;;;6.07;89.04;101156.34;5076573;28;20461;-83
2023/12/19 06:24:04;;;;;;;22.92;14.27;;;6.20;99.90;;;6.03;89.17;101162.13;5078432;28;20032;-83
2023/12/19 06:26:33;;;;;;;23.65;15.15;;;6.20;99.90;;;6.07;88.98;101161.63;5077717;28;20102;-83
2023/12/19 06:29:01;;;;;;;23.65;15.85;;;6.20;99.90;;;6.13;89.10;101162.78;5062084;28;20110;-83
2023/12/19 06:31:28;;;;;;;24.83;15.95;;;6.20;99.90;;;6.01;89.33;101159.66;5079050;28;20404;-83
2023/12/19 06:33:56;;;;;;;23.75;15.45;;;6.20;99.90;;;6.07;89.44;101145.75;5078479;28;20044;-83
2023/12/19 06:36:31;;;;;;;23.05;15.45;;;6.20;99.90;;;6.08;89.48;101152.69;5078161;28;20040;-83
2023/12/19 06:38:58;;;;;;;23.73;15.13;;;6.20;99.90;;;6.16;89.28;101158.00;5079436;28;20059;-83
2023/12/19 06:41:29;;;;;;;23.80;15.90;;;6.20;99.90;;;6.13;89.30;101160.97;5043051;28;20048;-84
2023/12/19 06:43:58;;;;;;;29.45;17.42;;;6.30;99.90;;;6.19;89.39;101156.81;5079435;28;20048;-83
2023/12/19 06:46:25;;;;;;;23.23;15.75;;;6.30;99.90;;;6.10;89.33;101147.22;5061491;28;20124;-85
2023/12/19 06:48:53;;;;;;;24.30;15.90;;;6.30;99.90;;;6.15;89.64;101140.47;5078123;28;20044;-85
2023/12/19 06:51:25;;;;;;;21.88;15.45;;;6.30;99.90;;;6.23;89.40;101130.84;5079380;28;20119;-85
2023/12/19 06:53:57;;;;;;;22.30;15.63;;;6.30;99.90;;;6.23;89.58;101130.84;5078736;28;20416;-84
2023/12/19 06:56:26;;;;;;;27.00;17.15;;;6.30;99.90;;;6.25;89.70;101129.69;5079503;28;20484;-85
2023/12/19 06:58:54;;;;;;;26.30;16.77;;;6.30;99.90;;;6.19;89.96;101120.56;5077887;28;20079;-85
2023/12/19 07:01:25;;;;;;;24.20;15.77;;;6.30;99.90;;;6.25;89.87;101120.91;5077625;28;20048;-84
2023/12/19 07:03:52;;;;;;;24.83;16.70;;;6.30;99.90;;;6.32;89.93;101121.91;5062451;28;20090;-83
2023/12/19 07:06:20;;;;;;;25.17;15.82;;;6.40;99.90;;;6.28;89.83;101125.88;5077033;28;20029;-84
2023/12/19 07:08:50;;;;;;;27.00;16.83;;;6.40;99.90;;;6.27;89.56;101119.75;5078296;28;20068;-84
2023/12/19 07:11:18;;;;;;;29.38;17.25;;;6.40;99.90;;;6.28;89.47;101105.50;5077124;28;20044;-84
2023/12/19 07:13:45;;;;;;;26.33;16.73;;;6.40;99.90;;;6.25;89.77;101097.91;5076870;28;20045;-84
2023/12/19 07:16:17;;;;;;;31.08;17.83;;;6.40;99.90;;;6.23;89.75;101094.59;5079583;28;20076;-85
2023/12/19 07:18:46;;;;;;;25.33;16.48;;;6.40;99.90;;;6.29;90.32;101087.78;5078571;28;20041;-84
2023/12/19 07:21:24;;;;;;;22.83;16.25;;;6.60;99.90;;;6.28;90.33;101080.84;5078529;28;20057;-82
2023/12/19 07:23:55;;;;;;;27.27;18.08;;;6.40;99.90;;;6.23;90.49;101089.28;5077188;28;20118;-84
2023/12/19 07:26:26;;;;;;;31.35;16.63;;;6.40;99.90;;;6.22;90.68;101094.75;5076710;28;20522;-84
2023/12/19 07:28:57;;;;;;;22.30;15.43;;;6.40;99.90;;;6.26;90.73;101094.25;5043276;28;20114;-84
2023/12/19 07:31:27;;;;;;;26.20;16.73;;;6.40;99.90;;;6.21;91.27;101091.28;5078142;28;20064;-84
2023/12/19 07:34:01;;;;;;;25.40;16.50;;;6.40;99.90;;;6.26;91.50;101091.63;5077649;28;20049;-84
2023/12/19 07:36:28;;;;;;;27.60;16.95;;;6.40;99.90;;;6.23;91.14;101086.63;5078166;28;20098;-84
2023/12/19 07:38:57;;;;;;;31.08;18.40;;;6.40;99.90;;;6.23;91.04;101083.16;5077305;28;20060;-84
2023/12/19 07:41:26;;;;;;;26.70;17.52;;;6.40;99.90;;;6.20;91.14;101073.75;5075294;28;20521;-84
2023/12/19 07:43:54;;;;;;;24.85;17.25;;;6.40;99.90;;;6.22;91.15;101070.94;5077790;28;20131;-83
2023/12/19 07:46:22;;;;;;;24.33;16.08;;;6.40;99.90;;;6.22;91.76;101071.75;5040051;28;20529;-84
2023/12/19 07:48:50;;;;;;;25.63;16.40;;;6.40;99.90;;;6.32;91.59;101076.88;5064603;28;20040;-84
2023/12/19 07:51:23;;;;;;;22.58;16.63;;;6.40;99.90;;;6.26;91.25;101080.19;5077747;28;20576;-84
2023/12/19 07:53:50;;;;;;;25.00;16.95;;;6.40;99.90;;;6.26;91.39;101088.97;5076706;28;20422;-84
2023/12/19 07:56:18;;;;;;;28.83;18.42;;;6.40;99.90;;;6.31;91.52;101070.75;5060589;28;20066;-84
2023/12/19 07:58:46;;;;;;;25.98;16.95;;;6.40;99.90;;;6.28;91.56;101070.25;5076549;28;20516;-84
2023/12/19 08:01:14;;;;;;;27.02;17.17;;;6.40;99.90;;;6.29;91.30;101066.59;5060088;28;20055;-84
2023/12/19 08:03:43;;;;;;;24.08;16.73;;;6.50;99.90;;;6.35;91.33;101076.53;5077518;28;20036;-84
2023/12/19 08:06:11;;;;;;;25.80;16.70;;;6.50;99.90;;;6.29;91.40;101077.19;5077587;28;20036;-84
2023/12/19 08:08:41;;;;;;;27.67;17.45;;;6.50;99.90;;;6.34;91.43;101078.34;5077260;28;20048;-85
2023/12/19 08:11:09;;;;;;;24.65;17.42;;;6.50;99.90;;;6.41;91.39;101087.28;5078538;28;20041;-84
2023/12/19 08:13:37;;;;;;;24.85;17.50;;;6.50;99.90;;;6.40;91.25;101088.28;5059329;28;20400;-84
2023/12/19 08:16:06;;;;;;;23.08;16.02;;;6.50;99.90;;;6.41;91.10;101067.91;5075629;28;20048;-84
2023/12/19 08:18:34;;;;;;;28.30;18.05;;;6.50;99.90;;;6.43;91.17;101079.16;5059950;28;20045;-84
2023/12/19 08:21:03;;;;;;;25.58;16.80;;;6.50;99.90;;;6.45;91.20;101072.69;5076780;28;20098;-84
2023/12/19 08:23:31;;;;;;;24.50;16.65;;;6.50;99.90;;;6.50;90.92;101068.72;5076010;28;20106;-84
2023/12/19 08:26:02;;;;;;;23.75;16.33;;;6.60;99.90;;;6.56;90.77;101073.34;5059323;28;20052;-84
2023/12/19 08:28:29;;;;;;;;;;;6.70;99.90;;;6.65;90.76;101077.63;5093972;28;20067;-84
2023/12/19 08:30:57;;;;;;;22.83;15.70;;;6.70;99.90;;;6.66;90.44;101076.63;5065642;28;19952;-84
2023/12/19 08:33:26;;;;;;;23.95;16.55;;;6.70;99.90;;;6.66;90.13;101082.75;5077185;28;20064;-84
2023/12/19 08:35:53;;;;;;;24.55;15.95;;;6.70;99.90;;;6.64;90.35;101076.78;5078301;28;20049;-84
2023/12/19 08:38:21;;;;;;;23.75;16.02;;;6.80;99.90;;;6.67;90.54;101075.63;5078570;28;20131;-84
2023/12/19 08:40:49;;;;;;;24.17;16.38;;;6.70;99.90;;;6.65;90.69;101065.19;5076343;28;20564;-84
2023/12/19 08:43:19;;;;;;;26.08;16.40;;;6.70;99.90;;;6.58;91.33;101058.91;5082647;28;20442;-84
2023/12/19 08:45:49;;;;;;;23.95;15.40;;;6.70;99.90;;;6.57;91.59;101053.78;5078701;28;20579;-84
2023/12/19 08:48:17;;;;;;;24.50;16.27;;;6.70;99.90;;;6.54;92.34;101044.38;5059383;28;20122;-84
2023/12/19 08:50:45;;;;;;;23.60;15.88;;;6.70;99.90;;;6.54;92.61;101038.22;5074667;28;20071;-84
2023/12/19 08:53:13;;;;;;;24.10;16.95;;;7.00;99.90;;;6.58;92.74;101024.44;5060310;28;20557;-84
2023/12/19 08:55:44;;;;;;;21.15;14.98;;;6.70;99.90;;;6.65;92.95;101027.25;5059916;28;20072;-84
2023/12/19 08:58:12;;;;;;;24.75;16.52;;;6.80;99.90;;;6.63;92.85;101014.16;5076663;28;20443;-84
2023/12/19 09:00:41;;;;;;;22.80;15.15;;;6.80;99.90;;;6.69;93.04;101013.50;5075393;28;20029;-85
2023/12/19 09:03:09;;;;;;;24.30;15.98;;;6.80;99.90;;;6.74;92.62;101026.22;5059172;28;20098;-85
2023/12/19 09:05:37;;;;;;;27.27;16.50;;;6.90;99.90;;;6.76;92.48;101015.44;5076456;28;20048;-85
2023/12/19 09:08:07;;;;;;;22.58;15.20;;;6.90;99.90;;;6.78;92.75;101024.03;5078629;28;20060;-85
2023/12/19 09:10:34;;;;;;;23.73;15.63;;;6.90;99.90;;;6.76;92.35;101021.56;5077911;28;20131;-85
2023/12/19 09:13:04;;;;;;;21.08;14.27;;;6.90;99.90;;;6.77;92.37;101027.69;5077911;28;20051;-85
2023/12/19 09:15:31;;;;;;;21.98;13.98;;;6.90;99.90;;;6.77;92.37;101033.00;5074866;28;20040;-85
2023/12/19 09:18:00;;;;;;;25.58;14.75;;;6.90;99.90;;;6.78;92.66;101026.69;5075593;28;20053;-85
2023/12/19 09:20:28;;;;;;;20.95;13.93;;;6.90;99.90;;;6.76;92.70;101024.22;5078986;28;20044;-85
2023/12/19 09:22:56;;;;;;;19.40;13.23;;;6.90;99.90;;;6.73;92.36;101013.97;5078987;28;20037;-85
2023/12/19 09:25:23;;;;;;;20.83;12.73;;;6.90;99.90;;;6.78;92.44;100995.72;5077999;28;20095;-85
2023/12/19 09:27:51;;;;;;;18.33;12.27;;;6.90;99.90;;;6.81;92.28;100998.03;5076364;28;20079;-85
2023/12/19 09:30:19;;;;;;;17.40;12.73;;;7.00;99.90;;;6.79;92.11;100988.59;5077885;28;20060;-83
2023/12/19 09:32:47;;;;;;;16.08;11.60;;;6.90;99.90;;;6.73;91.72;100984.81;5076289;28;20489;-85
2023/12/19 09:35:16;;;;;;;21.02;12.15;;;6.90;99.90;;;6.74;92.06;100998.91;5073525;28;20052;-85
2023/12/19 09:37:44;;;;;;;19.23;11.85;;;6.90;99.90;;;6.78;92.46;100981.63;5073816;28;20044;-85
2023/12/19 09:40:15;;;;;;;16.77;11.80;;;6.90;99.90;;;6.72;92.00;100985.81;5057461;28;20029;-85
2023/12/19 09:42:44;;;;;;;16.88;11.55;;;6.90;99.90;;;6.79;92.19;100985.97;5074313;28;20040;-85
2023/12/19 09:45:14;;;;;;;17.17;11.77;;;7.00;99.90;;;6.79;91.87;100970.06;5075060;28;20110;-85
2023/12/19 09:47:53;;;;;;;16.40;11.30;;;7.00;99.90;;;6.76;92.11;100968.56;5075257;28;20587;-85
2023/12/19 09:50:26;;;;;;;14.82;10.85;;;7.00;99.90;;;6.81;91.98;100968.88;5073785;28;20036;-85
2023/12/19 09:52:56;;;;;;;20.60;11.52;;;7.00;99.90;;;6.72;91.84;100978.69;5075840;28;20037;-85
2023/12/19 09:55:25;;;;;;;19.35;11.15;;;7.00;99.90;;;6.75;92.29;100968.75;5074314;28;20044;-85
2023/12/19 09:57:54;;;;;;;17.65;11.75;;;7.00;99.90;;;6.76;92.61;100970.38;5077759;28;20043;-85
2023/12/19 10:00:25;;;;;;;16.85;11.48;;;7.00;99.90;;;6.79;92.61;100978.00;5077622;28;20049;-85
2023/12/19 10:02:54;;;;;;;15.48;11.13;;;7.00;99.90;;;6.83;92.57;100968.69;5079255;28;20521;-85
2023/12/19 10:05:23;;;;;;;19.00;11.40;;;7.00;99.90;;;6.80;92.26;100964.56;5079114;28;20044;-85
2023/12/19 10:07:51;;;;;;;15.98;10.10;;;7.00;99.90;;;6.82;92.00;100964.38;5077613;28;20068;-85
2023/12/19 10:10:18;;;;;;;19.10;11.32;;;7.00;99.90;;;6.83;92.18;100973.97;5076599;28;20634;-84
2023/12/19 10:12:58;;;;;;;14.98;10.43;;;7.00;99.90;;;6.87;92.29;100959.38;5078364;28;20041;-84
2023/12/19 10:15:26;;;;;;;16.05;10.30;;;7.00;99.90;;;6.84;92.08;100955.28;5078687;28;20102;-85
2023/12/19 10:18:05;;;;;;;17.75;10.18;;;7.00;99.90;;;6.78;92.54;100955.13;5077240;28;20052;-85